This is the latest recevied weather packets stored in our database for station/object WB4YDL. If no packets are shown the sender has not sent any weather packets the latest 10 day(s).
| Time | Temp. | Humidity | Pressure | Rain* | Wind** | Luminosity | Snow |
|---|---|---|---|---|---|---|---|
| 1777585742 | 18.33° C | 46% | 1010.4 hPa | 0 mm | - | 395 W/m² | - |
| 1777585436 | 18.33° C | 45% | 1010.2 hPa | 0 mm | - | 333 W/m² | - |
| 1777585132 | 18.33° C | 45% | 1010.4 hPa | 0 mm | - | 391 W/m² | - |
| 1777584828 | 18.33° C | 48% | 1010.5 hPa | 0 mm | - | 314 W/m² | - |
| 1777584526 | 17.78° C | 47% | 1010.4 hPa | 0 mm | - | 331 W/m² | - |
| 1777584223 | 17.78° C | 43% | 1010.5 hPa | 0 mm | - | 368 W/m² | - |
| 1777583922 | 18.33° C | 47% | 1010.4 hPa | 0 mm | - | 367 W/m² | - |
| 1777583618 | 17.78° C | 46% | 1010.6 hPa | 0 mm | - | 428 W/m² | - |
| 1777583317 | 17.78° C | 44% | 1010.7 hPa | 0 mm | - | 374 W/m² | - |
| 1777583011 | 18.33° C | 49% | 1010.6 hPa | 0 mm | - | 429 W/m² | - |
| 1777582709 | 17.78° C | 44% | 1010.9 hPa | 0 mm | - | 363 W/m² | - |
| 1777582404 | 17.78° C | 44% | 1010.9 hPa | 0 mm | - | 546 W/m² | - |
| 1777582103 | 17.78° C | 45% | 1010.9 hPa | 0 mm | - | 369 W/m² | - |
| 1777581798 | 17.78° C | 47% | 1010.9 hPa | 0 mm | - | 393 W/m² | - |
| 1777581496 | 17.78° C | 45% | 1011.1 hPa | 0 mm | - | 315 W/m² | - |
| 1777581192 | 17.78° C | 45% | 1011.2 hPa | 0 mm | - | 402 W/m² | - |
| 1777580887 | 17.78° C | 44% | 1011.3 hPa | 0 mm | - | 390 W/m² | - |
| 1777580581 | 18.33° C | 43% | 1011.4 hPa | 0 mm | - | 383 W/m² | - |
| 1777580277 | 17.78° C | 43% | 1011.6 hPa | 0 mm | - | 629 W/m² | - |
| 1777579974 | 18.33° C | 49% | 1011.5 hPa | 0 mm | - | 638 W/m² | - |
| 1777579669 | 17.22° C | 44% | 1011.5 hPa | 0 mm | - | 512 W/m² | - |
| 1777579368 | 17.78° C | 42% | 1011.6 hPa | 0 mm | - | 499 W/m² | - |
| 1777579064 | 17.78° C | 46% | 1011.6 hPa | 0 mm | - | 513 W/m² | - |
| 1777578759 | 17.22° C | 46% | 1011.5 hPa | 0 mm | - | 512 W/m² | - |
| 1777578458 | 17.78° C | 46% | 1011.6 hPa | 0 mm | - | 589 W/m² | - |
* Rain latest hour (hover to see other rain measurements)
** Current wind speed in m/s (hover to see current wind gust speed)